createdAt,value
2023-01-11T00:04:40.440Z,0.85
2023-01-11T00:09:41.792Z,0.95
2023-01-11T00:14:43.248Z,1.20
2023-01-11T00:19:44.581Z,0.43
2023-01-11T00:24:45.950Z,0.70
2023-01-11T00:29:47.714Z,0.50
2023-01-11T00:34:49.071Z,0.45
2023-01-11T00:39:51.433Z,1.05
2023-01-11T00:45:11.539Z,0.82
2023-01-11T00:50:12.879Z,0.82
2023-01-11T00:55:14.330Z,0.82
2023-01-11T01:00:15.900Z,1.40
2023-01-11T01:05:18.156Z,0.82
2023-01-11T01:10:20.310Z,1.90
2023-01-11T01:15:22.020Z,0.50
2023-01-11T01:20:24.414Z,0.82
2023-01-11T01:25:25.735Z,0.40
2023-01-11T01:30:27.102Z,0.70
2023-01-11T01:35:28.462Z,0.85
2023-01-11T01:40:30.066Z,1.20
2023-01-11T01:45:31.403Z,1.30
2023-01-11T01:50:57.033Z,0.60
2023-01-11T01:56:01.480Z,0.60
2023-01-11T02:01:23.368Z,0.70
2023-01-11T02:06:25.259Z,0.52
2023-01-11T02:11:30.223Z,0.68
2023-01-11T02:16:31.812Z,0.77
2023-01-11T02:22:04.184Z,0.82
2023-01-11T02:27:33.589Z,0.75
2023-01-11T02:32:46.998Z,1.13
2023-01-11T02:38:33.536Z,0.85
2023-01-11T02:44:13.049Z,0.68
2023-01-11T02:49:36.773Z,0.70
2023-01-11T02:54:43.026Z,1.02
2023-01-11T02:59:48.962Z,0.65
2023-01-11T03:04:50.406Z,0.82
2023-01-11T03:09:57.523Z,1.45
2023-01-11T03:15:07.883Z,2.35
2023-01-11T03:20:35.110Z,1.13
2023-01-11T03:25:51.015Z,0.70
2023-01-11T03:31:02.349Z,1.00
2023-01-11T03:36:22.394Z,1.77
2023-01-11T03:41:27.478Z,1.48
2023-01-11T03:46:38.811Z,0.80
2023-01-11T03:51:45.717Z,1.20
2023-01-11T03:57:02.110Z,2.70
2023-01-11T04:02:03.666Z,10.57
2023-01-11T04:07:04.984Z,2.33
2023-01-11T04:12:06.541Z,0.70
2023-01-11T04:17:07.894Z,0.90
2023-01-11T04:22:09.252Z,0.65
2023-01-11T04:27:10.575Z,0.73
2023-01-11T04:32:11.901Z,0.98
2023-01-11T04:37:13.235Z,0.52
2023-01-11T04:42:20.234Z,0.50
2023-01-11T04:47:23.291Z,1.70
2023-01-11T04:52:24.608Z,0.90
2023-01-11T04:57:26.290Z,1.42
2023-01-11T05:02:27.611Z,0.90
2023-01-11T05:07:28.948Z,1.27
2023-01-11T05:12:30.270Z,1.15
2023-01-11T05:17:31.572Z,1.20
2023-01-11T05:22:32.930Z,1.23
2023-01-11T05:27:34.239Z,1.90
2023-01-11T05:32:35.544Z,1.48
2023-01-11T05:37:38.247Z,2.10
2023-01-11T05:42:39.580Z,2.25
2023-01-11T05:47:40.924Z,2.85
2023-01-11T05:52:42.244Z,3.53
2023-01-11T05:57:44.764Z,3.45
2023-01-11T06:02:46.299Z,4.20
2023-01-11T06:07:47.640Z,2.83
2023-01-11T06:13:12.457Z,1.48
2023-01-11T06:18:14.025Z,1.60
2023-01-11T06:23:15.390Z,1.70
2023-01-11T06:28:17.379Z,1.83
2023-01-11T06:33:19.188Z,1.83
2023-01-11T06:38:22.431Z,1.70
2023-01-11T06:43:25.029Z,2.28
2023-01-11T06:48:27.120Z,2.85
2023-01-11T06:53:29.346Z,3.30
2023-01-11T06:58:30.828Z,3.42
2023-01-11T07:03:32.545Z,3.65
2023-01-11T07:08:33.960Z,3.28
2023-01-11T07:13:35.573Z,3.67
2023-01-11T07:18:37.254Z,3.60
2023-01-11T07:23:38.583Z,4.18
2023-01-11T07:28:39.942Z,4.28
2023-01-11T07:33:41.240Z,3.95
2023-01-11T07:38:42.574Z,4.00
2023-01-11T07:43:43.897Z,4.35
2023-01-11T07:48:45.207Z,4.57
2023-01-11T07:53:46.947Z,4.88
2023-01-11T07:58:48.282Z,5.15
2023-01-11T08:03:50.116Z,5.00
2023-01-11T08:08:51.459Z,4.90
2023-01-11T08:14:11.235Z,3.88
2023-01-11T08:19:12.629Z,3.85
2023-01-11T08:24:14.164Z,3.92
2023-01-11T08:29:15.510Z,4.43
2023-01-11T08:34:16.927Z,4.03
2023-01-11T08:39:18.290Z,4.40
2023-01-11T08:44:33.384Z,4.07
2023-01-11T08:49:35.626Z,5.18
2023-01-11T08:54:37.001Z,5.80
2023-01-11T08:59:38.360Z,4.47
2023-01-11T09:04:39.847Z,4.10
2023-01-11T09:09:41.242Z,4.20
2023-01-11T09:14:42.794Z,3.95
2023-01-11T09:19:44.139Z,3.95
2023-01-11T09:24:45.453Z,6.18
2023-01-11T09:29:46.802Z,3.60
2023-01-11T09:34:49.619Z,3.88
2023-01-11T09:39:52.465Z,3.78
2023-01-11T09:44:57.235Z,3.65
2023-01-11T09:50:02.217Z,4.03
2023-01-11T09:55:04.568Z,3.92
2023-01-11T10:00:35.159Z,3.10
2023-01-11T10:05:51.370Z,3.70
2023-01-11T10:18:29.556Z,2.47
2023-01-11T10:22:43.974Z,2.70
2023-01-11T10:28:01.566Z,3.25
2023-01-11T10:33:25.326Z,2.88
2023-01-11T10:39:03.247Z,3.10
2023-01-11T10:44:18.880Z,3.40
2023-01-11T10:49:43.983Z,3.63
2023-01-11T10:54:51.099Z,4.43
2023-01-11T11:00:05.242Z,4.20
2023-01-11T11:05:19.843Z,4.03
2023-01-11T11:10:50.116Z,4.57
2023-01-11T11:16:16.267Z,4.53
2023-01-11T11:21:31.646Z,4.60
2023-01-11T11:26:39.407Z,4.78
2023-01-11T11:31:46.932Z,4.65
2023-01-11T11:41:53.195Z,4.10
2023-01-11T11:47:02.048Z,2.97
2023-01-11T11:52:05.375Z,1.90
2023-01-11T11:57:22.140Z,1.73
2023-01-11T12:02:28.156Z,1.63
2023-01-11T12:07:49.893Z,1.30
2023-01-11T12:12:58.074Z,1.25
2023-01-11T12:18:28.114Z,1.60
2023-01-11T12:23:29.457Z,1.52
2023-01-11T12:28:53.129Z,1.45
2023-01-11T12:34:13.146Z,1.50
2023-01-11T12:39:21.412Z,1.55
2023-01-11T12:45:07.474Z,1.90
2023-01-11T12:50:22.340Z,2.10
2023-01-11T12:55:41.913Z,1.77
2023-01-11T13:00:55.370Z,1.73
2023-01-11T13:06:23.980Z,1.48
2023-01-11T13:11:37.496Z,1.45
2023-01-11T13:16:51.933Z,1.33
2023-01-11T13:21:55.900Z,1.10
2023-01-11T13:27:11.890Z,1.48
2023-01-11T13:32:18.172Z,1.10
2023-01-11T13:37:42.987Z,1.00
2023-01-11T13:42:50.518Z,0.80
2023-01-11T13:47:56.205Z,0.95
2023-01-11T13:53:28.276Z,0.73
2023-01-11T13:58:42.228Z,1.10
2023-01-11T14:03:55.517Z,0.88
2023-01-11T14:09:10.948Z,0.73
2023-01-11T14:14:27.055Z,0.50
2023-01-11T14:19:40.323Z,0.85
2023-01-11T14:25:07.919Z,0.90
2023-01-11T14:30:38.698Z,0.60
2023-01-11T14:35:58.835Z,1.02
2023-01-11T14:41:25.498Z,1.20
2023-01-11T14:46:46.512Z,1.23
2023-01-11T14:52:07.752Z,0.70
2023-01-11T14:57:36.457Z,0.50
2023-01-11T15:02:37.958Z,0.50
2023-01-11T15:07:41.821Z,1.38
2023-01-11T15:12:43.159Z,1.60
2023-01-11T15:18:04.175Z,0.75
2023-01-11T15:23:05.927Z,0.50
2023-01-11T15:28:42.315Z,0.80
2023-01-11T15:33:48.737Z,1.10
2023-01-11T15:39:07.172Z,0.82
2023-01-11T15:44:48.277Z,1.25
2023-01-11T15:50:10.999Z,0.40
2023-01-11T15:55:49.287Z,0.77
2023-01-11T16:06:20.085Z,0.70
2023-01-11T16:11:54.292Z,0.73
2023-01-11T16:16:56.422Z,0.90
2023-01-11T16:22:01.750Z,0.80
2023-01-11T16:27:04.246Z,0.82
2023-01-11T16:32:08.071Z,0.85
2023-01-11T16:37:22.826Z,1.38
2023-01-11T16:42:29.197Z,0.70
2023-01-11T16:47:30.521Z,1.77
2023-01-11T16:52:37.594Z,0.98
2023-01-11T16:57:44.025Z,1.45
2023-01-11T17:02:48.792Z,1.00
2023-01-11T17:07:50.253Z,1.05
2023-01-11T17:13:34.727Z,1.02
2023-01-11T17:18:40.798Z,0.70
2023-01-11T17:23:43.993Z,1.23
2023-01-11T17:28:47.515Z,0.68
2023-01-11T17:33:59.089Z,1.13
2023-01-11T17:39:01.737Z,1.13
2023-01-11T17:44:22.005Z,1.10
2023-01-11T17:49:25.554Z,0.80
2023-01-11T17:54:27.642Z,1.00
2023-01-11T17:59:30.295Z,1.27
2023-01-11T18:04:32.074Z,1.20
2023-01-11T18:09:37.739Z,1.70
2023-01-11T18:14:46.467Z,1.73
2023-01-11T18:19:47.826Z,1.08
2023-01-11T18:24:53.530Z,1.70
2023-01-11T18:29:57.108Z,1.60
2023-01-11T18:34:58.983Z,1.15
2023-01-11T18:40:01.265Z,1.20
2023-01-11T18:45:02.801Z,1.48
2023-01-11T18:50:04.764Z,1.90
2023-01-11T18:55:06.887Z,2.25
2023-01-11T19:00:10.428Z,2.28
2023-01-11T19:05:13.245Z,1.20
2023-01-11T19:10:19.342Z,1.02
2023-01-11T19:15:20.694Z,1.80
2023-01-11T19:20:22.010Z,1.73
2023-01-11T19:25:23.450Z,1.00
2023-01-11T19:30:24.823Z,1.40
2023-01-11T19:35:26.212Z,1.50
2023-01-11T19:40:27.541Z,1.67
2023-01-11T19:45:28.849Z,1.25
2023-01-11T19:50:30.251Z,1.08
2023-01-11T19:55:31.559Z,0.80
2023-01-11T20:00:32.893Z,1.35
2023-01-11T20:05:34.665Z,1.30
2023-01-11T20:10:35.999Z,0.88
2023-01-11T20:15:38.563Z,1.55
2023-01-11T20:20:39.949Z,1.77
2023-01-11T20:25:41.414Z,0.75
2023-01-11T20:30:43.467Z,1.10
2023-01-11T20:35:45.526Z,1.45
2023-01-11T20:40:46.871Z,1.30
2023-01-11T20:45:56.194Z,1.35
2023-01-11T20:51:00.960Z,1.00
2023-01-11T20:56:05.376Z,1.58
2023-01-11T21:01:08.792Z,1.90
2023-01-11T21:06:10.530Z,1.15
2023-01-11T21:11:15.799Z,1.10
2023-01-11T21:16:17.187Z,1.25
2023-01-11T21:21:19.266Z,0.80
2023-01-11T21:26:20.683Z,0.90
2023-01-11T21:31:22.854Z,1.27
2023-01-11T21:36:26.276Z,0.82
2023-01-11T21:41:48.562Z,1.02
2023-01-11T21:46:50.280Z,0.95
2023-01-11T21:51:52.440Z,0.98
2023-01-11T21:56:53.791Z,0.77
2023-01-11T22:01:55.250Z,0.98
2023-01-11T22:06:58.029Z,0.73
2023-01-11T22:12:00.567Z,1.20
2023-01-11T22:17:04.444Z,1.80
2023-01-11T22:22:06.342Z,1.00
2023-01-11T22:27:07.701Z,1.33
2023-01-11T22:32:09.520Z,0.65
2023-01-11T22:37:11.007Z,1.02
2023-01-11T22:42:12.342Z,1.35
2023-01-11T22:47:13.699Z,0.50
2023-01-11T22:52:15.075Z,0.90
2023-01-11T22:57:16.424Z,1.55
2023-01-11T23:02:17.831Z,0.75
2023-01-11T23:07:19.528Z,1.08
2023-01-11T23:12:39.482Z,1.25
2023-01-11T23:17:40.782Z,0.90
2023-01-11T23:22:42.204Z,0.70
2023-01-11T23:27:43.536Z,0.70
2023-01-11T23:32:45.060Z,1.42
2023-01-11T23:37:46.394Z,1.35
2023-01-11T23:42:47.747Z,1.83
2023-01-11T23:47:49.142Z,1.77
2023-01-11T23:52:50.487Z,1.88
2023-01-11T23:58:08.926Z,1.50
